sensor_id;sensor_type;location;lat;lon;timestamp;pressure;altitude;pressure_sealevel;temperature;humidity
70198;BME280;57582;-34.876;138.628;2023-09-12T00:02:56;102552;;;20.39;38.63
70198;BME280;57582;-34.876;138.628;2023-09-12T00:05:56;102541;;;20.42;37.59
70198;BME280;57582;-34.876;138.628;2023-09-12T00:08:55;102552;;;20.56;37.80
70198;BME280;57582;-34.876;138.628;2023-09-12T00:11:55;102552;;;20.71;37.80
70198;BME280;57582;-34.876;138.628;2023-09-12T00:14:56;102557;;;20.77;37.00
70198;BME280;57582;-34.876;138.628;2023-09-12T00:17:56;102549;;;20.89;36.53
70198;BME280;57582;-34.876;138.628;2023-09-12T00:20:55;102548;;;20.93;36.57
70198;BME280;57582;-34.876;138.628;2023-09-12T00:23:55;102547;;;20.84;36.42
70198;BME280;57582;-34.876;138.628;2023-09-12T00:26:56;102541;;;21.04;37.13
70198;BME280;57582;-34.876;138.628;2023-09-12T00:29:55;102540;;;21.21;36.58
70198;BME280;57582;-34.876;138.628;2023-09-12T00:32:55;102539;;;21.30;35.64
70198;BME280;57582;-34.876;138.628;2023-09-12T00:35:55;102532;;;21.31;34.83
70198;BME280;57582;-34.876;138.628;2023-09-12T00:38:56;102538;;;21.22;37.17
70198;BME280;57582;-34.876;138.628;2023-09-12T00:41:56;102527;;;21.35;35.58
70198;BME280;57582;-34.876;138.628;2023-09-12T00:44:56;102530;;;21.49;35.44
70198;BME280;57582;-34.876;138.628;2023-09-12T00:47:56;102525;;;21.53;35.19
70198;BME280;57582;-34.876;138.628;2023-09-12T00:50:56;102518;;;21.59;34.77
70198;BME280;57582;-34.876;138.628;2023-09-12T00:53:56;102526;;;21.76;35.83
70198;BME280;57582;-34.876;138.628;2023-09-12T00:56:56;102518;;;21.71;35.37
70198;BME280;57582;-34.876;138.628;2023-09-12T00:59:56;102518;;;21.48;34.56
70198;BME280;57582;-34.876;138.628;2023-09-12T01:02:56;102507;;;21.42;34.87
70198;BME280;57582;-34.876;138.628;2023-09-12T01:05:56;102503;;;21.61;35.70
70198;BME280;57582;-34.876;138.628;2023-09-12T01:08:56;102503;;;21.79;35.75
70198;BME280;57582;-34.876;138.628;2023-09-12T01:11:56;102505;;;21.96;34.54
70198;BME280;57582;-34.876;138.628;2023-09-12T01:14:56;102501;;;22.20;34.90
70198;BME280;57582;-34.876;138.628;2023-09-12T01:17:56;102502;;;22.42;34.23
70198;BME280;57582;-34.876;138.628;2023-09-12T01:29:57;102497;;;23.12;34.56
70198;BME280;57582;-34.876;138.628;2023-09-12T01:32:56;102498;;;23.29;33.83
70198;BME280;57582;-34.876;138.628;2023-09-12T01:35:56;102499;;;23.40;33.39
70198;BME280;57582;-34.876;138.628;2023-09-12T01:38:56;102494;;;23.68;33.63
70198;BME280;57582;-34.876;138.628;2023-09-12T01:41:56;102481;;;23.81;32.89
70198;BME280;57582;-34.876;138.628;2023-09-12T01:44:56;102488;;;24.02;32.43
70198;BME280;57582;-34.876;138.628;2023-09-12T01:47:56;102480;;;23.97;32.06
70198;BME280;57582;-34.876;138.628;2023-09-12T01:50:56;102476;;;24.03;32.23
70198;BME280;57582;-34.876;138.628;2023-09-12T01:53:56;102468;;;23.91;31.96
70198;BME280;57582;-34.876;138.628;2023-09-12T01:56:56;102468;;;24.00;32.67
70198;BME280;57582;-34.876;138.628;2023-09-12T01:59:56;102463;;;23.97;33.20
70198;BME280;57582;-34.876;138.628;2023-09-12T02:02:56;102461;;;23.90;32.54
70198;BME280;57582;-34.876;138.628;2023-09-12T02:05:56;102457;;;24.13;32.83
70198;BME280;57582;-34.876;138.628;2023-09-12T02:08:56;102457;;;24.41;33.02
70198;BME280;57582;-34.876;138.628;2023-09-12T02:11:56;102448;;;24.53;31.99
70198;BME280;57582;-34.876;138.628;2023-09-12T02:14:56;102446;;;24.52;32.04
70198;BME280;57582;-34.876;138.628;2023-09-12T02:17:56;102442;;;24.40;32.74
70198;BME280;57582;-34.876;138.628;2023-09-12T02:20:57;102446;;;24.44;33.45
70198;BME280;57582;-34.876;138.628;2023-09-12T02:23:56;102442;;;24.63;31.35
70198;BME280;57582;-34.876;138.628;2023-09-12T02:26:56;102435;;;24.69;30.85
70198;BME280;57582;-34.876;138.628;2023-09-12T02:29:56;102440;;;24.70;30.13
70198;BME280;57582;-34.876;138.628;2023-09-12T02:32:56;102437;;;24.81;30.12
70198;BME280;57582;-34.876;138.628;2023-09-12T02:35:56;102425;;;24.82;29.78
70198;BME280;57582;-34.876;138.628;2023-09-12T02:38:56;102431;;;24.94;29.60
70198;BME280;57582;-34.876;138.628;2023-09-12T02:41:56;102415;;;24.99;28.61
70198;BME280;57582;-34.876;138.628;2023-09-12T02:44:56;102416;;;24.79;29.25
70198;BME280;57582;-34.876;138.628;2023-09-12T02:47:56;102407;;;24.77;29.50
70198;BME280;57582;-34.876;138.628;2023-09-12T02:50:56;102401;;;25.04;29.45
70198;BME280;57582;-34.876;138.628;2023-09-12T02:53:56;102394;;;25.23;28.62
70198;BME280;57582;-34.876;138.628;2023-09-12T02:56:56;102395;;;25.12;28.77
70198;BME280;57582;-34.876;138.628;2023-09-12T02:59:56;102386;;;25.22;28.79
70198;BME280;57582;-34.876;138.628;2023-09-12T03:02:56;102377;;;25.33;28.44
70198;BME280;57582;-34.876;138.628;2023-09-12T03:05:57;102379;;;25.21;28.28
70198;BME280;57582;-34.876;138.628;2023-09-12T03:08:56;102366;;;25.16;28.97
70198;BME280;57582;-34.876;138.628;2023-09-12T03:11:56;102370;;;25.30;28.55
70198;BME280;57582;-34.876;138.628;2023-09-12T03:14:56;102366;;;25.29;28.55
70198;BME280;57582;-34.876;138.628;2023-09-12T03:17:56;102368;;;25.44;28.10
70198;BME280;57582;-34.876;138.628;2023-09-12T03:20:56;102360;;;25.54;28.09
70198;BME280;57582;-34.876;138.628;2023-09-12T03:23:56;102355;;;25.59;28.07
70198;BME280;57582;-34.876;138.628;2023-09-12T03:26:56;102349;;;25.65;28.16
70198;BME280;57582;-34.876;138.628;2023-09-12T03:29:56;102351;;;25.73;27.29
70198;BME280;57582;-34.876;138.628;2023-09-12T03:32:56;102340;;;25.76;27.86
70198;BME280;57582;-34.876;138.628;2023-09-12T03:35:56;102343;;;25.83;27.59
70198;BME280;57582;-34.876;138.628;2023-09-12T03:38:56;102336;;;25.81;28.23
70198;BME280;57582;-34.876;138.628;2023-09-12T03:41:56;102337;;;25.80;27.91
70198;BME280;57582;-34.876;138.628;2023-09-12T03:44:56;102324;;;25.96;27.21
70198;BME280;57582;-34.876;138.628;2023-09-12T03:47:56;102319;;;25.81;27.83
70198;BME280;57582;-34.876;138.628;2023-09-12T03:50:56;102319;;;25.82;27.08
70198;BME280;57582;-34.876;138.628;2023-09-12T03:53:56;102320;;;25.83;27.31
70198;BME280;57582;-34.876;138.628;2023-09-12T03:56:56;102299;;;25.95;26.49
70198;BME280;57582;-34.876;138.628;2023-09-12T03:59:56;102299;;;25.98;26.33
70198;BME280;57582;-34.876;138.628;2023-09-12T04:02:56;102300;;;26.09;26.44
70198;BME280;57582;-34.876;138.628;2023-09-12T04:05:56;102303;;;26.20;26.40
70198;BME280;57582;-34.876;138.628;2023-09-12T04:08:56;102300;;;26.12;25.77
70198;BME280;57582;-34.876;138.628;2023-09-12T04:11:56;102293;;;26.06;26.58
70198;BME280;57582;-34.876;138.628;2023-09-12T04:14:56;102285;;;26.10;27.02
70198;BME280;57582;-34.876;138.628;2023-09-12T04:17:56;102280;;;26.21;26.41
70198;BME280;57582;-34.876;138.628;2023-09-12T04:20:56;102280;;;26.06;26.99
70198;BME280;57582;-34.876;138.628;2023-09-12T04:23:56;102277;;;25.83;26.08
70198;BME280;57582;-34.876;138.628;2023-09-12T04:26:56;102287;;;25.76;27.18
70198;BME280;57582;-34.876;138.628;2023-09-12T04:29:56;102288;;;25.54;26.72
70198;BME280;57582;-34.876;138.628;2023-09-12T04:32:56;102282;;;25.68;25.34
70198;BME280;57582;-34.876;138.628;2023-09-12T04:35:58;102287;;;25.84;25.44
70198;BME280;57582;-34.876;138.628;2023-09-12T04:38:56;102280;;;25.95;25.52
70198;BME280;57582;-34.876;138.628;2023-09-12T04:41:56;102279;;;26.06;25.49
70198;BME280;57582;-34.876;138.628;2023-09-12T04:44:56;102260;;;26.24;24.79
70198;BME280;57582;-34.876;138.628;2023-09-12T04:47:56;102266;;;26.44;25.67
70198;BME280;57582;-34.876;138.628;2023-09-12T04:50:56;102257;;;26.19;26.08
70198;BME280;57582;-34.876;138.628;2023-09-12T04:53:56;102258;;;26.25;25.94
70198;BME280;57582;-34.876;138.628;2023-09-12T04:56:56;102268;;;26.19;26.01
70198;BME280;57582;-34.876;138.628;2023-09-12T04:59:56;102252;;;26.26;25.70
70198;BME280;57582;-34.876;138.628;2023-09-12T05:02:57;102252;;;26.29;25.42
70198;BME280;57582;-34.876;138.628;2023-09-12T05:05:56;102258;;;25.84;25.73
70198;BME280;57582;-34.876;138.628;2023-09-12T05:08:56;102253;;;25.90;26.15
70198;BME280;57582;-34.876;138.628;2023-09-12T05:11:56;102251;;;26.08;25.60
70198;BME280;57582;-34.876;138.628;2023-09-12T05:14:57;102256;;;25.89;26.22
70198;BME280;57582;-34.876;138.628;2023-09-12T05:17:56;102253;;;25.89;25.79
70198;BME280;57582;-34.876;138.628;2023-09-12T05:20:56;102257;;;25.96;25.97
70198;BME280;57582;-34.876;138.628;2023-09-12T05:23:56;102255;;;25.93;25.90
70198;BME280;57582;-34.876;138.628;2023-09-12T05:26:57;102250;;;26.09;25.77
70198;BME280;57582;-34.876;138.628;2023-09-12T05:29:56;102246;;;26.16;26.14
70198;BME280;57582;-34.876;138.628;2023-09-12T05:32:56;102246;;;26.24;25.88
70198;BME280;57582;-34.876;138.628;2023-09-12T05:35:56;102243;;;26.29;25.81
70198;BME280;57582;-34.876;138.628;2023-09-12T05:38:57;102245;;;26.39;26.51
70198;BME280;57582;-34.876;138.628;2023-09-12T05:41:56;102241;;;26.46;26.04
70198;BME280;57582;-34.876;138.628;2023-09-12T05:44:56;102243;;;26.64;26.35
70198;BME280;57582;-34.876;138.628;2023-09-12T05:47:56;102245;;;26.75;25.53
70198;BME280;57582;-34.876;138.628;2023-09-12T05:50:57;102241;;;26.71;25.35
70198;BME280;57582;-34.876;138.628;2023-09-12T05:53:56;102230;;;26.64;24.54
70198;BME280;57582;-34.876;138.628;2023-09-12T05:56:56;102239;;;26.55;25.32
70198;BME280;57582;-34.876;138.628;2023-09-12T05:59:56;102237;;;26.47;25.34
70198;BME280;57582;-34.876;138.628;2023-09-12T06:02:57;102233;;;26.48;25.52
70198;BME280;57582;-34.876;138.628;2023-09-12T06:05:56;102230;;;26.46;25.37
70198;BME280;57582;-34.876;138.628;2023-09-12T06:08:56;102227;;;26.36;25.78
70198;BME280;57582;-34.876;138.628;2023-09-12T06:11:56;102218;;;26.46;25.45
70198;BME280;57582;-34.876;138.628;2023-09-12T06:14:57;102219;;;26.53;25.94
70198;BME280;57582;-34.876;138.628;2023-09-12T06:17:56;102218;;;26.49;24.92
70198;BME280;57582;-34.876;138.628;2023-09-12T06:20:57;102218;;;26.47;24.88
70198;BME280;57582;-34.876;138.628;2023-09-12T06:26:57;102210;;;26.19;25.77
70198;BME280;57582;-34.876;138.628;2023-09-12T06:29:56;102209;;;26.23;25.55
70198;BME280;57582;-34.876;138.628;2023-09-12T06:32:56;102214;;;26.03;25.93
70198;BME280;57582;-34.876;138.628;2023-09-12T06:35:56;102210;;;26.11;25.50
70198;BME280;57582;-34.876;138.628;2023-09-12T06:38:57;102209;;;26.03;25.60
70198;BME280;57582;-34.876;138.628;2023-09-12T06:41:56;102210;;;26.09;25.72
70198;BME280;57582;-34.876;138.628;2023-09-12T06:44:56;102210;;;25.98;25.82
70198;BME280;57582;-34.876;138.628;2023-09-12T06:47:56;102213;;;26.03;25.78
70198;BME280;57582;-34.876;138.628;2023-09-12T06:50:57;102212;;;26.07;25.29
70198;BME280;57582;-34.876;138.628;2023-09-12T06:53:56;102216;;;26.11;25.78
70198;BME280;57582;-34.876;138.628;2023-09-12T06:56:56;102211;;;26.15;25.29
70198;BME280;57582;-34.876;138.628;2023-09-12T06:59:56;102210;;;26.14;25.00
70198;BME280;57582;-34.876;138.628;2023-09-12T07:02:57;102223;;;26.02;24.85
70198;BME280;57582;-34.876;138.628;2023-09-12T07:05:56;102225;;;25.85;25.02
70198;BME280;57582;-34.876;138.628;2023-09-12T07:08:56;102230;;;25.80;25.40
70198;BME280;57582;-34.876;138.628;2023-09-12T07:11:57;102232;;;25.74;25.42
70198;BME280;57582;-34.876;138.628;2023-09-12T07:14:57;102237;;;25.74;25.43
70198;BME280;57582;-34.876;138.628;2023-09-12T07:17:56;102232;;;25.69;25.54
70198;BME280;57582;-34.876;138.628;2023-09-12T07:20:57;102240;;;25.63;25.74
70198;BME280;57582;-34.876;138.628;2023-09-12T07:23:56;102244;;;25.55;25.40
70198;BME280;57582;-34.876;138.628;2023-09-12T07:26:57;102239;;;25.51;25.18
70198;BME280;57582;-34.876;138.628;2023-09-12T07:29:56;102242;;;25.51;25.49
70198;BME280;57582;-34.876;138.628;2023-09-12T07:32:56;102248;;;25.48;25.14
70198;BME280;57582;-34.876;138.628;2023-09-12T07:35:56;102253;;;25.39;24.88
70198;BME280;57582;-34.876;138.628;2023-09-12T07:38:57;102250;;;25.33;25.19
70198;BME280;57582;-34.876;138.628;2023-09-12T07:41:56;102249;;;25.27;25.33
70198;BME280;57582;-34.876;138.628;2023-09-12T07:44:56;102247;;;25.09;25.75
70198;BME280;57582;-34.876;138.628;2023-09-12T07:47:56;102249;;;24.99;26.02
70198;BME280;57582;-34.876;138.628;2023-09-12T07:50:57;102247;;;24.99;26.33
70198;BME280;57582;-34.876;138.628;2023-09-12T07:53:56;102255;;;24.99;26.13
70198;BME280;57582;-34.876;138.628;2023-09-12T07:56:56;102253;;;24.98;25.44
70198;BME280;57582;-34.876;138.628;2023-09-12T07:59:56;102256;;;24.93;24.83
70198;BME280;57582;-34.876;138.628;2023-09-12T08:02:57;102252;;;24.84;24.40
70198;BME280;57582;-34.876;138.628;2023-09-12T08:05:57;102263;;;24.76;24.67
70198;BME280;57582;-34.876;138.628;2023-09-12T08:08:56;102261;;;24.59;24.75
70198;BME280;57582;-34.876;138.628;2023-09-12T08:11:56;102262;;;24.47;25.49
70198;BME280;57582;-34.876;138.628;2023-09-12T08:14:57;102262;;;24.41;26.00
70198;BME280;57582;-34.876;138.628;2023-09-12T08:17:56;102254;;;24.33;26.44
70198;BME280;57582;-34.876;138.628;2023-09-12T08:20:57;102263;;;24.18;26.61
70198;BME280;57582;-34.876;138.628;2023-09-12T08:23:56;102265;;;24.08;27.16
70198;BME280;57582;-34.876;138.628;2023-09-12T08:26:57;102256;;;23.91;27.77
70198;BME280;57582;-34.876;138.628;2023-09-12T08:29:56;102254;;;23.74;28.73
70198;BME280;57582;-34.876;138.628;2023-09-12T08:32:56;102256;;;23.63;29.35
70198;BME280;57582;-34.876;138.628;2023-09-12T08:35:56;102265;;;23.54;29.75
70198;BME280;57582;-34.876;138.628;2023-09-12T08:38:57;102256;;;23.49;31.11
70198;BME280;57582;-34.876;138.628;2023-09-12T08:41:56;102260;;;23.51;31.18
70198;BME280;57582;-34.876;138.628;2023-09-12T08:44:56;102252;;;23.58;31.80
70198;BME280;57582;-34.876;138.628;2023-09-12T08:47:58;102264;;;23.70;31.75
70198;BME280;57582;-34.876;138.628;2023-09-12T08:50:57;102263;;;23.79;30.51
70198;BME280;57582;-34.876;138.628;2023-09-12T08:53:56;102265;;;23.85;30.53
70198;BME280;57582;-34.876;138.628;2023-09-12T08:56:56;102262;;;23.95;30.09
70198;BME280;57582;-34.876;138.628;2023-09-12T08:59:56;102267;;;24.05;30.16
70198;BME280;57582;-34.876;138.628;2023-09-12T09:02:57;102270;;;24.10;30.18
70198;BME280;57582;-34.876;138.628;2023-09-12T09:05:56;102280;;;24.09;30.21
70198;BME280;57582;-34.876;138.628;2023-09-12T09:08:56;102284;;;24.05;30.03
70198;BME280;57582;-34.876;138.628;2023-09-12T09:11:56;102284;;;23.88;30.53
70198;BME280;57582;-34.876;138.628;2023-09-12T09:14:57;102291;;;23.73;31.55
70198;BME280;57582;-34.876;138.628;2023-09-12T09:17:57;102287;;;23.69;31.60
70198;BME280;57582;-34.876;138.628;2023-09-12T09:20:56;102288;;;23.58;32.01
70198;BME280;57582;-34.876;138.628;2023-09-12T09:24:00;102291;;;23.47;32.37
70198;BME280;57582;-34.876;138.628;2023-09-12T09:26:57;102292;;;23.39;31.77
70198;BME280;57582;-34.876;138.628;2023-09-12T09:29:56;102293;;;23.28;32.43
70198;BME280;57582;-34.876;138.628;2023-09-12T09:32:56;102289;;;22.96;32.99
70198;BME280;57582;-34.876;138.628;2023-09-12T09:36:04;102291;;;22.88;33.54
70198;BME280;57582;-34.876;138.628;2023-09-12T09:38:57;102293;;;22.79;33.95
70198;BME280;57582;-34.876;138.628;2023-09-12T09:41:57;102294;;;22.78;34.32
70198;BME280;57582;-34.876;138.628;2023-09-12T09:44:56;102299;;;22.79;34.47
70198;BME280;57582;-34.876;138.628;2023-09-12T09:47:57;102304;;;22.76;34.55
70198;BME280;57582;-34.876;138.628;2023-09-12T09:51:00;102315;;;21.68;36.10
70198;BME280;57582;-34.876;138.628;2023-09-12T09:53:57;102313;;;21.10;37.58
70198;BME280;57582;-34.876;138.628;2023-09-12T09:56:57;102311;;;20.81;38.43
70198;BME280;57582;-34.876;138.628;2023-09-12T09:59:56;102314;;;20.34;39.49
70198;BME280;57582;-34.876;138.628;2023-09-12T10:02:57;102319;;;20.19;39.97
70198;BME280;57582;-34.876;138.628;2023-09-12T10:05:56;102321;;;20.41;40.09
70198;BME280;57582;-34.876;138.628;2023-09-12T10:08:57;102322;;;20.63;40.11
70198;BME280;57582;-34.876;138.628;2023-09-12T10:11:56;102327;;;20.22;41.05
70198;BME280;57582;-34.876;138.628;2023-09-12T10:14:59;102317;;;20.08;41.34
70198;BME280;57582;-34.876;138.628;2023-09-12T10:17:59;102330;;;20.20;41.40
70198;BME280;57582;-34.876;138.628;2023-09-12T10:20:59;102331;;;20.31;41.24
70198;BME280;57582;-34.876;138.628;2023-09-12T10:23:57;102329;;;20.26;41.35
70198;BME280;57582;-34.876;138.628;2023-09-12T10:26:57;102328;;;20.36;41.21
70198;BME280;57582;-34.876;138.628;2023-09-12T10:29:56;102327;;;20.50;41.03
70198;BME280;57582;-34.876;138.628;2023-09-12T10:32:57;102335;;;20.56;40.49
70198;BME280;57582;-34.876;138.628;2023-09-12T10:35:57;102340;;;20.62;40.65
70198;BME280;57582;-34.876;138.628;2023-09-12T10:38:57;102341;;;20.60;40.65
70198;BME280;57582;-34.876;138.628;2023-09-12T10:41:57;102336;;;20.60;40.54
70198;BME280;57582;-34.876;138.628;2023-09-12T10:44:56;102342;;;20.21;40.92
70198;BME280;57582;-34.876;138.628;2023-09-12T10:47:57;102345;;;19.78;41.79
70198;BME280;57582;-34.876;138.628;2023-09-12T10:50:58;102344;;;19.60;42.35
70198;BME280;57582;-34.876;138.628;2023-09-12T10:53:57;102342;;;19.73;42.07
70198;BME280;57582;-34.876;138.628;2023-09-12T10:57:12;102336;;;19.85;41.74
70198;BME280;57582;-34.876;138.628;2023-09-12T11:02:57;102339;;;20.11;41.38
70198;BME280;57582;-34.876;138.628;2023-09-12T11:05:57;102341;;;20.17;41.30
70198;BME280;57582;-34.876;138.628;2023-09-12T11:12:04;102336;;;20.19;41.18
70198;BME280;57582;-34.876;138.628;2023-09-12T11:15:04;102332;;;20.01;41.63
70198;BME280;57582;-34.876;138.628;2023-09-12T11:18:12;102333;;;19.71;42.36
70198;BME280;57582;-34.876;138.628;2023-09-12T11:23:57;102328;;;19.38;42.96
70198;BME280;57582;-34.876;138.628;2023-09-12T11:26:59;102329;;;18.61;44.32
70198;BME280;57582;-34.876;138.628;2023-09-12T11:30:03;102324;;;18.24;45.38
70198;BME280;57582;-34.876;138.628;2023-09-12T11:32:57;102329;;;17.90;46.03
70198;BME280;57582;-34.876;138.628;2023-09-12T11:35:57;102323;;;17.80;46.53
70198;BME280;57582;-34.876;138.628;2023-09-12T11:39:01;102323;;;17.68;46.69
70198;BME280;57582;-34.876;138.628;2023-09-12T11:41:58;102318;;;17.41;47.20
70198;BME280;57582;-34.876;138.628;2023-09-12T11:44:57;102316;;;17.21;47.39
70198;BME280;57582;-34.876;138.628;2023-09-12T11:47:57;102310;;;16.85;48.38
70198;BME280;57582;-34.876;138.628;2023-09-12T11:50:57;102305;;;16.74;48.77
70198;BME280;57582;-34.876;138.628;2023-09-12T11:53:57;102309;;;16.75;48.80
70198;BME280;57582;-34.876;138.628;2023-09-12T11:56:57;102283;;;16.45;49.10
70198;BME280;57582;-34.876;138.628;2023-09-12T11:59:57;102302;;;16.54;49.15
70198;BME280;57582;-34.876;138.628;2023-09-12T12:02:57;102300;;;16.51;49.26
70198;BME280;57582;-34.876;138.628;2023-09-12T12:05:57;102304;;;16.60;49.07
70198;BME280;57582;-34.876;138.628;2023-09-12T12:08:57;102306;;;16.68;48.66
70198;BME280;57582;-34.876;138.628;2023-09-12T12:12:02;102305;;;16.72;48.61
70198;BME280;57582;-34.876;138.628;2023-09-12T12:14:57;102307;;;16.83;48.28
70198;BME280;57582;-34.876;138.628;2023-09-12T12:17:57;102310;;;16.90;48.16
70198;BME280;57582;-34.876;138.628;2023-09-12T12:20:57;102303;;;17.31;47.45
70198;BME280;57582;-34.876;138.628;2023-09-12T12:24:00;102301;;;17.38;47.20
70198;BME280;57582;-34.876;138.628;2023-09-12T12:27:00;102306;;;17.16;47.30
70198;BME280;57582;-34.876;138.628;2023-09-12T12:29:57;102298;;;16.92;48.00
70198;BME280;57582;-34.876;138.628;2023-09-12T12:32:57;102298;;;16.81;48.06
70198;BME280;57582;-34.876;138.628;2023-09-12T12:36:04;102298;;;16.58;48.39
70198;BME280;57582;-34.876;138.628;2023-09-12T12:38:57;102294;;;16.40;48.96
70198;BME280;57582;-34.876;138.628;2023-09-12T12:41:57;102293;;;16.30;49.09
70198;BME280;57582;-34.876;138.628;2023-09-12T12:44:57;102285;;;16.22;49.30
70198;BME280;57582;-34.876;138.628;2023-09-12T12:47:58;102287;;;16.18;49.36
70198;BME280;57582;-34.876;138.628;2023-09-12T12:50:58;102290;;;16.28;49.32
70198;BME280;57582;-34.876;138.628;2023-09-12T12:54:02;102291;;;16.43;48.72
70198;BME280;57582;-34.876;138.628;2023-09-12T12:56:57;102295;;;16.53;48.58
70198;BME280;57582;-34.876;138.628;2023-09-12T12:59:58;102298;;;16.78;48.10
70198;BME280;57582;-34.876;138.628;2023-09-12T13:02:57;102296;;;16.99;47.31
70198;BME280;57582;-34.876;138.628;2023-09-12T13:05:57;102289;;;16.85;47.39
70198;BME280;57582;-34.876;138.628;2023-09-12T13:08:57;102294;;;16.58;47.95
70198;BME280;57582;-34.876;138.628;2023-09-12T13:11:57;102294;;;16.38;48.58
70198;BME280;57582;-34.876;138.628;2023-09-12T13:14:57;102293;;;16.25;48.86
70198;BME280;57582;-34.876;138.628;2023-09-12T13:17:57;102293;;;16.22;49.10
70198;BME280;57582;-34.876;138.628;2023-09-12T13:20:57;102286;;;15.96;49.10
70198;BME280;57582;-34.876;138.628;2023-09-12T13:23:57;102285;;;15.83;49.66
70198;BME280;57582;-34.876;138.628;2023-09-12T13:26:57;102284;;;15.71;49.98
70198;BME280;57582;-34.876;138.628;2023-09-12T13:29:57;102277;;;15.71;49.77
70198;BME280;57582;-34.876;138.628;2023-09-12T13:32:57;102279;;;15.75;49.77
70198;BME280;57582;-34.876;138.628;2023-09-12T13:35:57;102274;;;15.83;49.61
70198;BME280;57582;-34.876;138.628;2023-09-12T13:38:57;102279;;;16.17;49.11
70198;BME280;57582;-34.876;138.628;2023-09-12T13:41:57;102280;;;16.22;48.45
70198;BME280;57582;-34.876;138.628;2023-09-12T13:44:57;102272;;;16.14;48.81
70198;BME280;57582;-34.876;138.628;2023-09-12T13:47:57;102268;;;16.15;48.53
70198;BME280;57582;-34.876;138.628;2023-09-12T13:50:58;102265;;;16.29;48.29
70198;BME280;57582;-34.876;138.628;2023-09-12T13:53:57;102266;;;16.44;47.75
70198;BME280;57582;-34.876;138.628;2023-09-12T13:56:57;102260;;;16.41;47.85
70198;BME280;57582;-34.876;138.628;2023-09-12T13:59:57;102266;;;16.49;47.71
70198;BME280;57582;-34.876;138.628;2023-09-12T14:02:57;102258;;;16.07;47.96
70198;BME280;57582;-34.876;138.628;2023-09-12T14:05:57;102262;;;15.52;49.21
70198;BME280;57582;-34.876;138.628;2023-09-12T14:08:57;102265;;;15.17;49.58
70198;BME280;57582;-34.876;138.628;2023-09-12T14:11:57;102265;;;15.07;50.18
70198;BME280;57582;-34.876;138.628;2023-09-12T14:14:57;102272;;;15.01;50.60
70198;BME280;57582;-34.876;138.628;2023-09-12T14:17:57;102263;;;14.84;50.41
70198;BME280;57582;-34.876;138.628;2023-09-12T14:20:57;102266;;;14.78;50.78
70198;BME280;57582;-34.876;138.628;2023-09-12T14:23:57;102263;;;14.74;50.86
70198;BME280;57582;-34.876;138.628;2023-09-12T14:26:57;102268;;;14.82;50.57
70198;BME280;57582;-34.876;138.628;2023-09-12T14:29:57;102262;;;14.78;50.67
70198;BME280;57582;-34.876;138.628;2023-09-12T14:32:57;102261;;;14.93;50.29
70198;BME280;57582;-34.876;138.628;2023-09-12T14:35:57;102256;;;14.87;50.53
70198;BME280;57582;-34.876;138.628;2023-09-12T14:38:57;102255;;;14.85;50.25
70198;BME280;57582;-34.876;138.628;2023-09-12T14:41:57;102248;;;14.80;50.36
70198;BME280;57582;-34.876;138.628;2023-09-12T14:44:57;102240;;;14.81;50.22
70198;BME280;57582;-34.876;138.628;2023-09-12T14:47:57;102236;;;14.82;50.51
70198;BME280;57582;-34.876;138.628;2023-09-12T14:50:58;102237;;;14.77;50.11
70198;BME280;57582;-34.876;138.628;2023-09-12T14:53:57;102242;;;14.85;50.16
70198;BME280;57582;-34.876;138.628;2023-09-12T14:56:57;102244;;;14.87;49.90
70198;BME280;57582;-34.876;138.628;2023-09-12T14:59:57;102247;;;14.78;50.14
70198;BME280;57582;-34.876;138.628;2023-09-12T15:02:57;102245;;;14.72;50.31
70198;BME280;57582;-34.876;138.628;2023-09-12T15:05:57;102250;;;14.72;50.25
70198;BME280;57582;-34.876;138.628;2023-09-12T15:08:57;102241;;;14.64;50.46
70198;BME280;57582;-34.876;138.628;2023-09-12T15:11:57;102245;;;14.55;50.54
70198;BME280;57582;-34.876;138.628;2023-09-12T15:14:58;102246;;;14.60;50.22
70198;BME280;57582;-34.876;138.628;2023-09-12T15:17:57;102231;;;14.48;50.23
70198;BME280;57582;-34.876;138.628;2023-09-12T15:20:57;102232;;;14.59;50.27
70198;BME280;57582;-34.876;138.628;2023-09-12T15:23:57;102230;;;14.57;50.24
70198;BME280;57582;-34.876;138.628;2023-09-12T15:26:57;102234;;;14.53;50.31
70198;BME280;57582;-34.876;138.628;2023-09-12T15:29:57;102235;;;14.57;50.32
70198;BME280;57582;-34.876;138.628;2023-09-12T15:32:57;102229;;;14.65;50.20
70198;BME280;57582;-34.876;138.628;2023-09-12T15:35:57;102230;;;14.61;50.48
70198;BME280;57582;-34.876;138.628;2023-09-12T15:38:57;102235;;;14.67;50.16
70198;BME280;57582;-34.876;138.628;2023-09-12T15:41:57;102238;;;14.78;50.07
70198;BME280;57582;-34.876;138.628;2023-09-12T15:44:57;102226;;;15.03;49.84
70198;BME280;57582;-34.876;138.628;2023-09-12T15:47:57;102222;;;14.94;49.55
70198;BME280;57582;-34.876;138.628;2023-09-12T15:50:57;102219;;;15.15;49.28
70198;BME280;57582;-34.876;138.628;2023-09-12T15:53:57;102219;;;15.31;49.14
70198;BME280;57582;-34.876;138.628;2023-09-12T15:56:58;102213;;;15.52;48.78
70198;BME280;57582;-34.876;138.628;2023-09-12T15:59:57;102210;;;15.63;48.25
70198;BME280;57582;-34.876;138.628;2023-09-12T16:02:58;102212;;;15.78;48.13